Etusivu
METAR-TAF:

METAR-TAF

Lentoasemat :

Stampede Pass, Washington, Yhdysvallat

Leveyspiiri: 47-16-36N, Pituuspiiri: 121-20-14W, korkeus merenpinnasta: 1207 m

Tämänhetkinen sää

Tämä raportti tehtiin 20 minuuttia sitten, kello 05.51 UTC
Tuuli 3 kn eri suunnista
Lämpötila -1°C
Kosteus 86%
Ilmanpaine 1012 hPa
Näkyvyys: 0.4 km
jäätävää sumua

METAR: KSMP 150551Z AUTO VRB03KT 1/4SM FZFG VV002 M01/M03 A2988 RMK AO2 T10111028

Aika: 22:11 (06:11 UTC)


TAF: puuttuu

Säähavainnot ja -ennusteet yli 4000 lentoasemalta (METAR- ja TAF-raportit).

Käytössä olevat sääasemat on merkitty karttaan keltaisilla ja punaisilla pisteillä.

Aseta hiiri pisteen päälle nähdäksesi sääaseman nimen.

Klikkaa sitten nähdäksesi säähavainnot ja -ennusteet.

Kartan vaihtaminen: klikkaa mustalla rastilla varustettuja vihreitä pisteitä, niin voit zoomata sisään; viivalla varustettua vihreää pistettä, niin voit zoomata ulos tai vihreitä nuolia, niin pääset viereisille kartoille.


METAR-TAF: